createdAt,value
2019-04-14T00:01:36.961Z,33.83
2019-04-14T00:04:22.668Z,29.97
2019-04-14T00:06:52.515Z,31.60
2019-04-14T00:09:20.659Z,31.40
2019-04-14T00:11:48.577Z,30.50
2019-04-14T00:14:16.571Z,31.77
2019-04-14T00:16:44.652Z,31.70
2019-04-14T00:19:13.035Z,32.80
2019-04-14T00:21:41.141Z,32.57
2019-04-14T00:24:09.485Z,31.57
2019-04-14T00:26:37.954Z,31.90
2019-04-14T00:29:06.782Z,32.30
2019-04-14T00:31:34.993Z,30.80
2019-04-14T00:34:07.260Z,31.53
2019-04-14T00:37:01.277Z,33.53
2019-04-14T00:39:35.718Z,32.17
2019-04-14T00:42:23.415Z,31.60
2019-04-14T00:44:55.931Z,32.80
2019-04-14T00:47:31.172Z,30.47
2019-04-14T00:49:59.443Z,31.77
2019-04-14T00:52:27.721Z,32.13
2019-04-14T00:54:56.479Z,32.07
2019-04-14T00:57:24.720Z,30.80
2019-04-14T00:59:53.100Z,31.90
2019-04-14T01:02:21.178Z,32.17
2019-04-14T01:04:49.194Z,30.40
2019-04-14T01:07:17.354Z,31.07
2019-04-14T01:09:46.354Z,33.27
2019-04-14T01:12:14.898Z,32.17
2019-04-14T01:14:43.131Z,32.10
2019-04-14T01:17:11.354Z,31.17
2019-04-14T01:19:39.470Z,30.97
2019-04-14T01:22:07.482Z,31.50
2019-04-14T01:24:35.996Z,30.57
2019-04-14T01:27:04.130Z,31.10
2019-04-14T01:29:32.111Z,30.77
2019-04-14T01:32:00.622Z,31.97
2019-04-14T01:34:28.669Z,31.97
2019-04-14T01:36:56.718Z,31.10
2019-04-14T01:39:24.739Z,31.67
2019-04-14T01:41:52.799Z,30.10
2019-04-14T01:44:21.998Z,30.37
2019-04-14T01:46:50.057Z,30.47
2019-04-14T01:49:18.141Z,31.97
2019-04-14T01:52:08.215Z,31.07
2019-04-14T01:54:45.432Z,31.70
2019-04-14T01:57:30.638Z,31.00
2019-04-14T02:00:18.445Z,31.83
2019-04-14T02:02:46.569Z,29.27
2019-04-14T02:05:14.646Z,31.30
2019-04-14T02:07:42.887Z,31.07
2019-04-14T02:10:11.098Z,28.90
2019-04-14T02:12:39.086Z,29.23
2019-04-14T02:15:07.251Z,30.80
2019-04-14T02:17:35.311Z,29.77
2019-04-14T02:20:03.435Z,30.40
2019-04-14T02:22:31.487Z,29.43
2019-04-14T02:24:59.546Z,29.37
2019-04-14T02:27:27.551Z,30.57
2019-04-14T02:29:55.948Z,30.70
2019-04-14T02:32:49.516Z,31.87
2019-04-14T02:35:20.965Z,30.57
2019-04-14T02:37:59.385Z,29.87
2019-04-14T02:42:52.398Z,28.00
2019-04-14T02:45:29.943Z,31.07
2019-04-14T02:50:18.035Z,29.17
2019-04-14T02:55:32.434Z,30.30
2019-04-14T02:57:49.367Z,29.77
2019-04-14T03:00:24.179Z,30.87
2019-04-14T03:02:44.337Z,28.63
2019-04-14T03:05:17.622Z,28.70
2019-04-14T03:07:45.766Z,30.00
2019-04-14T03:15:19.474Z,31.23
2019-04-14T03:18:18.175Z,31.33
2019-04-14T03:20:32.205Z,30.97
2019-04-14T03:23:17.317Z,31.00
2019-04-14T03:25:49.186Z,31.63
2019-04-14T03:28:36.467Z,30.30
2019-04-14T03:31:25.984Z,30.77
2019-04-14T03:41:13.708Z,29.03
2019-04-14T03:43:33.877Z,29.07
2019-04-14T03:51:05.504Z,28.17
2019-04-14T03:53:28.943Z,29.13
2019-04-14T03:55:59.760Z,29.83
2019-04-14T03:58:22.599Z,28.00
2019-04-14T04:00:51.504Z,29.37
2019-04-14T04:03:19.665Z,28.63
2019-04-14T04:05:47.892Z,28.90
2019-04-14T04:08:15.899Z,28.97
2019-04-14T04:10:44.306Z,30.07
2019-04-14T04:13:12.627Z,29.37
2019-04-14T04:15:41.192Z,30.23
2019-04-14T04:18:17.823Z,28.17
2019-04-14T04:21:20.641Z,28.87
2019-04-14T04:23:53.391Z,28.63
2019-04-14T04:26:47.243Z,29.00
2019-04-14T04:29:20.127Z,27.30
2019-04-14T04:32:19.179Z,27.40
2019-04-14T04:35:09.299Z,26.77
2019-04-14T04:37:47.719Z,28.63
2019-04-14T04:40:20.142Z,27.27
2019-04-14T04:42:48.432Z,28.70
2019-04-14T04:45:17.084Z,28.00
2019-04-14T04:47:45.172Z,27.07
2019-04-14T04:50:13.245Z,27.67
2019-04-14T04:52:41.279Z,29.90
2019-04-14T04:55:09.261Z,27.70
2019-04-14T04:57:37.318Z,28.70
2019-04-14T05:00:07.018Z,28.77
2019-04-14T05:02:35.313Z,28.50
2019-04-14T05:05:03.545Z,27.53
2019-04-14T05:07:31.722Z,29.13
2019-04-14T05:10:28.545Z,27.73
2019-04-14T05:13:09.984Z,27.00
2019-04-14T05:15:53.246Z,28.63
2019-04-14T05:18:22.869Z,28.17
2019-04-14T05:20:51.060Z,29.80
2019-04-14T05:23:19.192Z,30.10
2019-04-14T05:25:47.468Z,28.07
2019-04-14T05:28:15.626Z,27.47
2019-04-14T05:30:43.673Z,27.27
2019-04-14T05:33:12.108Z,29.13
2019-04-14T05:35:40.354Z,30.00
2019-04-14T05:38:08.544Z,28.53
2019-04-14T05:40:36.591Z,29.13
2019-04-14T05:43:04.600Z,31.47
2019-04-14T05:45:32.801Z,28.90
2019-04-14T05:48:01.113Z,27.97
2019-04-14T05:50:29.273Z,29.00
2019-04-14T05:52:57.934Z,28.20
2019-04-14T05:55:26.300Z,27.83
2019-04-14T05:57:54.565Z,28.30
2019-04-14T06:00:23.531Z,28.37
2019-04-14T06:02:52.648Z,29.73
2019-04-14T06:05:21.137Z,29.63
2019-04-14T06:07:49.381Z,28.73
2019-04-14T06:10:17.462Z,29.13
2019-04-14T06:12:45.411Z,28.00
2019-04-14T06:15:13.503Z,29.70
2019-04-14T06:17:41.575Z,29.73
2019-04-14T06:20:09.638Z,28.00
2019-04-14T06:22:37.613Z,26.00
2019-04-14T06:25:06.702Z,26.50
2019-04-14T06:27:35.404Z,25.20
2019-04-14T06:30:14.937Z,26.87
2019-04-14T06:32:44.102Z,26.43
2019-04-14T06:35:37.149Z,25.60
2019-04-14T06:38:11.602Z,28.30
2019-04-14T06:40:49.907Z,26.13
2019-04-14T06:43:17.991Z,24.73
2019-04-14T06:45:45.952Z,24.83
2019-04-14T06:48:14.305Z,27.00
2019-04-14T06:50:42.296Z,27.60
2019-04-14T06:53:10.267Z,26.90
2019-04-14T06:55:38.252Z,26.27
2019-04-14T06:58:06.218Z,31.17
2019-04-14T07:00:34.318Z,31.63
2019-04-14T07:03:02.350Z,29.40
2019-04-14T07:05:30.416Z,29.60
2019-04-14T07:07:58.522Z,28.87
2019-04-14T07:10:26.558Z,29.60
2019-04-14T07:12:54.551Z,29.77
2019-04-14T07:15:22.625Z,27.90
2019-04-14T07:17:50.667Z,29.43
2019-04-14T07:20:18.658Z,30.33
2019-04-14T07:22:46.605Z,30.60
2019-04-14T07:25:14.592Z,30.63
2019-04-14T07:27:42.649Z,30.30
2019-04-14T07:30:29.697Z,26.90
2019-04-14T07:33:15.444Z,28.20
2019-04-14T07:35:53.568Z,27.13
2019-04-14T07:38:26.266Z,25.07
2019-04-14T07:41:25.587Z,25.80
2019-04-14T07:44:18.626Z,26.30
2019-04-14T07:46:59.363Z,25.33
2019-04-14T07:49:58.729Z,25.00
2019-04-14T07:52:37.287Z,24.70
2019-04-14T07:55:24.210Z,23.83
2019-04-14T07:58:09.802Z,22.23
2019-04-14T08:00:52.033Z,21.60
2019-04-14T08:03:44.876Z,24.07
2019-04-14T08:06:12.954Z,23.33
2019-04-14T08:08:40.972Z,23.50
2019-04-14T08:11:08.952Z,28.40
2019-04-14T08:13:36.940Z,24.53
2019-04-14T08:16:05.117Z,25.33
2019-04-14T08:18:33.337Z,22.20
2019-04-14T08:21:01.357Z,22.87
2019-04-14T08:23:29.569Z,26.77
2019-04-14T08:25:57.594Z,25.63
2019-04-14T08:28:25.678Z,24.27
2019-04-14T08:30:53.758Z,26.03
2019-04-14T08:33:21.686Z,25.50
2019-04-14T08:35:49.703Z,29.80
2019-04-14T08:38:17.728Z,30.47
2019-04-14T08:40:45.930Z,23.87
2019-04-14T08:43:33.048Z,25.87
2019-04-14T08:46:25.595Z,24.60
2019-04-14T08:49:08.926Z,24.40
2019-04-14T08:51:54.597Z,24.20
2019-04-14T08:54:27.043Z,22.83
2019-04-14T08:57:14.086Z,23.20
2019-04-14T08:59:53.598Z,22.50
2019-04-14T09:02:43.573Z,22.50
2019-04-14T09:05:42.972Z,23.13
2019-04-14T09:08:20.922Z,23.07
2019-04-14T09:10:52.053Z,22.83
2019-04-14T09:13:20.037Z,22.50
2019-04-14T09:15:48.016Z,22.43
2019-04-14T09:18:15.973Z,22.03
2019-04-14T09:20:52.167Z,22.33
2019-04-14T09:23:13.826Z,21.53
2019-04-14T09:25:41.804Z,22.27
2019-04-14T09:28:09.794Z,22.80
2019-04-14T09:30:37.798Z,21.70
2019-04-14T09:33:05.806Z,23.77
2019-04-14T09:35:33.881Z,23.43
2019-04-14T09:38:01.876Z,24.30
2019-04-14T09:40:29.940Z,21.80
2019-04-14T09:42:57.924Z,23.03
2019-04-14T09:45:25.980Z,23.60
2019-04-14T09:47:53.953Z,25.33
2019-04-14T09:50:21.927Z,23.80
2019-04-14T09:52:49.882Z,23.77
2019-04-14T09:55:17.864Z,24.33
2019-04-14T09:57:45.954Z,24.57
2019-04-14T10:00:14.708Z,24.30
2019-04-14T10:02:42.712Z,25.10
2019-04-14T10:05:10.779Z,23.57
2019-04-14T10:07:38.843Z,22.80
2019-04-14T10:10:06.919Z,24.47
2019-04-14T10:12:34.951Z,22.20
2019-04-14T10:15:03.076Z,22.90
2019-04-14T10:17:31.102Z,23.37
2019-04-14T10:19:59.089Z,24.83
2019-04-14T10:22:33.817Z,23.23
2019-04-14T10:24:56.855Z,25.30
2019-04-14T10:27:24.853Z,23.57
2019-04-14T10:29:52.796Z,23.80
2019-04-14T10:32:20.960Z,22.97
2019-04-14T10:34:48.958Z,22.80
2019-04-14T10:37:17.012Z,24.47
2019-04-14T10:39:44.986Z,23.23
2019-04-14T10:42:47.467Z,23.80
2019-04-14T10:45:18.348Z,24.00
2019-04-14T10:47:45.881Z,24.40
2019-04-14T10:50:13.845Z,23.33
2019-04-14T10:52:41.913Z,22.47
2019-04-14T10:55:10.140Z,22.73
2019-04-14T10:57:38.129Z,22.90
2019-04-14T11:00:08.106Z,23.53
2019-04-14T11:02:36.143Z,24.30
2019-04-14T11:05:04.305Z,23.20
2019-04-14T11:07:32.413Z,23.97
2019-04-14T11:10:00.393Z,24.27
2019-04-14T11:12:28.318Z,25.00
2019-04-14T11:14:56.309Z,24.97
2019-04-14T11:17:24.568Z,24.53
2019-04-14T11:19:53.614Z,24.63
2019-04-14T11:22:21.644Z,24.60
2019-04-14T11:24:49.732Z,24.63
2019-04-14T11:27:17.671Z,25.40
2019-04-14T11:29:45.723Z,24.40
2019-04-14T11:32:35.791Z,24.43
2019-04-14T11:35:31.675Z,24.63
2019-04-14T11:38:13.630Z,24.70
2019-04-14T11:40:44.488Z,24.90
2019-04-14T11:43:12.449Z,24.70
2019-04-14T11:45:40.753Z,25.60
2019-04-14T11:48:08.783Z,24.10
2019-04-14T11:50:36.744Z,24.70
2019-04-14T11:53:04.783Z,23.37
2019-04-14T11:55:32.955Z,23.80
2019-04-14T11:58:01.002Z,23.10
2019-04-14T12:00:41.693Z,25.17
2019-04-14T12:03:24.662Z,23.57
2019-04-14T12:06:10.673Z,24.60
2019-04-14T12:08:56.302Z,23.83
2019-04-14T12:11:24.315Z,24.40
2019-04-14T12:13:52.292Z,25.83
2019-04-14T12:16:20.245Z,26.10
2019-04-14T12:18:48.267Z,23.80
2019-04-14T12:21:16.204Z,26.40
2019-04-14T12:23:44.172Z,24.33
2019-04-14T12:26:12.138Z,24.13
2019-04-14T12:28:40.488Z,23.60
2019-04-14T12:31:08.766Z,25.27
2019-04-14T12:33:36.744Z,24.17
2019-04-14T12:36:06.634Z,24.33
2019-04-14T12:38:34.649Z,25.83
2019-04-14T12:41:04.442Z,26.60
2019-04-14T12:43:54.317Z,26.27
2019-04-14T12:46:38.994Z,26.97
2019-04-14T12:49:11.787Z,24.20
2019-04-14T12:52:01.879Z,24.53
2019-04-14T12:54:29.930Z,24.40
2019-04-14T12:56:58.046Z,26.13
2019-04-14T12:59:26.400Z,56.03
2019-04-14T13:02:07.377Z,29.80
2019-04-14T13:04:35.431Z,23.20
2019-04-14T13:07:03.322Z,22.67
2019-04-14T13:09:31.335Z,24.77
2019-04-14T13:11:59.241Z,24.67
2019-04-14T13:14:27.308Z,25.17
2019-04-14T13:16:55.391Z,25.60
2019-04-14T13:19:23.497Z,28.10
2019-04-14T13:21:51.393Z,26.30
2019-04-14T13:24:20.003Z,25.47
2019-04-14T13:26:48.086Z,25.20
2019-04-14T13:29:16.124Z,27.97
2019-04-14T13:31:44.161Z,27.40
2019-04-14T13:34:13.225Z,24.97
2019-04-14T13:36:41.305Z,24.90
2019-04-14T13:39:09.240Z,26.10
2019-04-14T13:41:37.224Z,26.30
2019-04-14T13:44:05.225Z,25.00
2019-04-14T13:46:33.270Z,26.30
2019-04-14T13:49:01.366Z,24.37
2019-04-14T13:51:29.390Z,26.37
2019-04-14T13:53:57.421Z,25.63
2019-04-14T13:56:25.320Z,25.00
2019-04-14T13:58:53.298Z,25.93
2019-04-14T14:01:21.284Z,25.23
2019-04-14T14:03:49.371Z,25.73
2019-04-14T14:06:17.389Z,26.57
2019-04-14T14:08:45.397Z,26.27
2019-04-14T14:11:22.395Z,25.03
2019-04-14T14:13:56.074Z,24.80
2019-04-14T14:16:41.883Z,25.17
2019-04-14T14:19:23.561Z,26.07
2019-04-14T14:22:10.543Z,24.37
2019-04-14T14:24:57.588Z,22.77
2019-04-14T14:27:25.640Z,24.20
2019-04-14T14:29:53.682Z,26.30
2019-04-14T14:32:40.742Z,25.43
2019-04-14T14:35:08.971Z,25.87
2019-04-14T14:37:36.967Z,27.20
2019-04-14T14:40:06.690Z,25.17
2019-04-14T14:42:34.657Z,27.77
2019-04-14T14:45:17.779Z,26.10
2019-04-14T14:47:52.110Z,27.47
2019-04-14T14:50:29.498Z,27.70
2019-04-14T14:52:57.575Z,29.17
2019-04-14T14:55:25.538Z,28.30
2019-04-14T14:57:53.619Z,28.70
2019-04-14T15:00:30.062Z,26.13
2019-04-14T15:02:58.112Z,25.60
2019-04-14T15:05:26.007Z,26.33
2019-04-14T15:07:53.953Z,24.80
2019-04-14T15:10:22.116Z,26.43
2019-04-14T15:12:50.169Z,24.83
2019-04-14T15:15:18.185Z,26.83
2019-04-14T15:17:46.282Z,27.27
2019-04-14T15:20:14.346Z,25.50
2019-04-14T15:22:42.861Z,27.30
2019-04-14T15:25:10.909Z,26.87
2019-04-14T15:27:38.993Z,27.50
2019-04-14T15:30:12.192Z,29.40
2019-04-14T15:32:40.453Z,26.00
2019-04-14T15:35:08.545Z,27.43
2019-04-14T15:37:36.726Z,25.70
2019-04-14T15:40:05.292Z,26.77
2019-04-14T15:42:33.344Z,29.17
2019-04-14T15:45:01.362Z,26.53
2019-04-14T15:47:29.357Z,26.53
2019-04-14T15:49:57.430Z,27.40
2019-04-14T15:52:25.490Z,25.97
2019-04-14T15:54:53.482Z,25.30
2019-04-14T15:57:38.557Z,25.80
2019-04-14T16:00:24.865Z,28.27
2019-04-14T16:03:12.015Z,26.57
2019-04-14T16:06:01.819Z,25.17
2019-04-14T16:08:43.641Z,23.23
2019-04-14T16:11:30.641Z,22.37
2019-04-14T16:14:33.086Z,21.63
2019-04-14T16:17:29.218Z,20.90
2019-04-14T16:20:22.317Z,21.77
2019-04-14T16:22:50.390Z,20.93
2019-04-14T16:25:18.802Z,20.83
2019-04-14T16:28:14.796Z,21.23
2019-04-14T16:31:14.110Z,21.33
2019-04-14T16:34:01.976Z,24.87
2019-04-14T16:36:30.060Z,23.40
2019-04-14T16:38:58.164Z,22.97
2019-04-14T16:41:26.152Z,22.57
2019-04-14T16:43:54.161Z,24.17
2019-04-14T16:46:22.124Z,24.00
2019-04-14T16:48:50.238Z,23.97
2019-04-14T16:51:23.901Z,23.03
2019-04-14T16:54:02.626Z,23.20
2019-04-14T16:56:46.423Z,23.40
2019-04-14T16:59:16.355Z,24.33
2019-04-14T17:01:46.767Z,23.97
2019-04-14T17:04:14.758Z,22.67
2019-04-14T17:06:42.840Z,24.00
2019-04-14T17:09:10.787Z,22.00
2019-04-14T17:11:38.809Z,22.73
2019-04-14T17:14:10.499Z,23.80
2019-04-14T17:17:03.442Z,23.57
2019-04-14T17:19:53.601Z,24.43
2019-04-14T17:22:43.640Z,24.80
2019-04-14T17:25:28.501Z,21.90
2019-04-14T17:28:24.581Z,20.60
2019-04-14T17:31:17.389Z,21.83
2019-04-14T17:34:07.214Z,23.30
2019-04-14T17:36:46.773Z,24.70
2019-04-14T17:39:35.449Z,22.90
2019-04-14T17:42:13.767Z,22.10
2019-04-14T17:45:00.787Z,30.13
2019-04-14T17:47:47.866Z,23.00
2019-04-14T17:50:40.543Z,22.23
2019-04-14T17:53:15.025Z,22.90
2019-04-14T17:55:51.747Z,22.83
2019-04-14T17:58:24.321Z,23.07
2019-04-14T18:01:11.397Z,22.77
2019-04-14T18:03:50.881Z,24.63
2019-04-14T18:06:25.143Z,24.30
2019-04-14T18:09:10.758Z,29.80
2019-04-14T18:11:57.781Z,32.10
2019-04-14T18:14:32.116Z,31.77
2019-04-14T18:17:25.472Z,39.27
2019-04-14T18:20:15.476Z,49.13
2019-04-14T18:22:43.420Z,35.17
2019-04-14T18:25:11.444Z,28.70
2019-04-14T18:27:58.499Z,32.10
2019-04-14T18:30:29.957Z,27.17
2019-04-14T18:33:21.287Z,25.70
2019-04-14T18:35:59.398Z,24.43
2019-04-14T18:38:59.010Z,26.80
2019-04-14T18:41:55.063Z,26.20
2019-04-14T18:44:42.130Z,26.00
2019-04-14T18:47:30.801Z,25.13
2019-04-14T18:50:18.555Z,26.00
2019-04-14T18:53:04.512Z,25.37
2019-04-14T18:55:50.224Z,24.17
2019-04-14T18:58:37.304Z,25.03
2019-04-14T19:01:12.371Z,25.43
2019-04-14T19:03:41.473Z,25.97
2019-04-14T19:06:09.444Z,25.03
2019-04-14T19:08:37.500Z,26.10
2019-04-14T19:11:14.080Z,26.70
2019-04-14T19:13:42.236Z,25.13
2019-04-14T19:16:16.374Z,27.20
2019-04-14T19:18:49.757Z,25.70
2019-04-14T19:21:20.240Z,25.20
2019-04-14T19:23:54.296Z,23.83
2019-04-14T19:26:22.327Z,24.00
2019-04-14T19:28:50.212Z,25.57
2019-04-14T19:31:18.188Z,25.37
2019-04-14T19:33:46.250Z,26.00
2019-04-14T19:36:14.225Z,25.70
2019-04-14T19:38:42.392Z,24.23
2019-04-14T19:41:10.368Z,26.67
2019-04-14T19:43:38.360Z,25.73
2019-04-14T19:46:06.302Z,24.70
2019-04-14T19:48:34.285Z,25.40
2019-04-14T19:51:02.268Z,25.87
2019-04-14T19:53:30.320Z,25.90
2019-04-14T19:55:58.315Z,25.53
2019-04-14T19:58:26.360Z,23.70
2019-04-14T20:00:54.747Z,24.80
2019-04-14T20:03:22.837Z,26.70
2019-04-14T20:05:50.880Z,24.90
2019-04-14T20:08:18.866Z,26.03
2019-04-14T20:10:46.848Z,22.60
2019-04-14T20:13:14.841Z,24.40
2019-04-14T20:16:20.257Z,21.57
2019-04-14T20:19:10.632Z,21.60
2019-04-14T20:21:59.081Z,20.03
2019-04-14T20:24:44.575Z,21.27
2019-04-14T20:27:34.839Z,18.33
2019-04-14T20:30:07.346Z,18.73
2019-04-14T20:32:37.041Z,18.30
2019-04-14T20:35:05.647Z,16.40
2019-04-14T20:37:33.830Z,16.03
2019-04-14T20:40:01.882Z,15.97
2019-04-14T20:42:29.953Z,15.03
2019-04-14T20:44:58.017Z,16.30
2019-04-14T20:47:26.019Z,15.30
2019-04-14T20:49:54.075Z,15.07
2019-04-14T20:52:22.178Z,15.20
2019-04-14T20:54:50.181Z,15.67
2019-04-14T20:57:18.192Z,13.23
2019-04-14T20:59:46.140Z,12.97
2019-04-14T21:02:42.506Z,12.73
2019-04-14T21:05:28.632Z,12.77
2019-04-14T21:08:34.154Z,13.73
2019-04-14T21:11:23.949Z,12.53
2019-04-14T21:14:08.204Z,13.90
2019-04-14T21:16:50.682Z,16.50
2019-04-14T21:19:38.034Z,13.90
2019-04-14T21:22:14.122Z,14.60
2019-04-14T21:25:19.807Z,14.30
2019-04-14T21:27:56.748Z,13.00
2019-04-14T21:30:34.021Z,13.30
2019-04-14T21:33:07.737Z,13.97
2019-04-14T21:35:55.312Z,13.63
2019-04-14T21:38:41.210Z,14.73
2019-04-14T21:41:13.438Z,13.17
2019-04-14T21:43:41.915Z,12.07
2019-04-14T21:46:10.201Z,12.53
2019-04-14T21:48:38.168Z,11.27
2019-04-14T21:51:06.133Z,10.50
2019-04-14T21:53:34.117Z,11.00
2019-04-14T21:56:12.837Z,11.30
2019-04-14T21:58:39.862Z,11.20
2019-04-14T22:01:44.692Z,11.70
2019-04-14T22:04:34.496Z,14.37
2019-04-14T22:07:19.735Z,12.00
2019-04-14T22:09:47.837Z,13.40
2019-04-14T22:12:15.812Z,12.93
2019-04-14T22:14:43.833Z,12.70
2019-04-14T22:17:11.866Z,12.50
2019-04-14T22:19:39.938Z,13.20
2019-04-14T22:22:08.150Z,13.90
2019-04-14T22:24:36.162Z,11.83
2019-04-14T22:27:04.136Z,13.33
2019-04-14T22:29:32.129Z,12.20
2019-04-14T22:32:00.089Z,12.80
2019-04-14T22:34:28.033Z,12.00
2019-04-14T22:36:56.422Z,11.50
2019-04-14T22:39:24.397Z,12.27
2019-04-14T22:41:52.458Z,11.40
2019-04-14T22:44:20.453Z,12.70
2019-04-14T22:46:48.504Z,13.50
2019-04-14T22:49:16.590Z,12.83
2019-04-14T22:51:44.631Z,12.80
2019-04-14T22:54:12.632Z,12.00
2019-04-14T22:56:40.584Z,13.10
2019-04-14T22:59:08.874Z,12.83
2019-04-14T23:01:38.998Z,12.00
2019-04-14T23:04:31.680Z,11.30
2019-04-14T23:07:21.765Z,11.00
2019-04-14T23:10:21.176Z,11.90
2019-04-14T23:13:02.732Z,12.03
2019-04-14T23:15:43.786Z,11.37
2019-04-14T23:18:29.488Z,11.00
2019-04-14T23:21:34.762Z,11.20
2019-04-14T23:24:30.501Z,11.00
2019-04-14T23:26:58.572Z,11.70
2019-04-14T23:29:26.570Z,11.53
2019-04-14T23:31:54.539Z,11.90
2019-04-14T23:34:22.537Z,12.33
2019-04-14T23:36:50.633Z,12.70
2019-04-14T23:39:18.666Z,12.63
2019-04-14T23:41:46.711Z,12.50
2019-04-14T23:44:14.722Z,12.87
2019-04-14T23:46:42.757Z,12.73
2019-04-14T23:49:10.729Z,11.83
2019-04-14T23:51:38.717Z,12.00
2019-04-14T23:54:06.787Z,12.03
2019-04-14T23:56:34.866Z,10.27
2019-04-14T23:59:03.030Z,11.50
